AST,Max TemperatureF,Mean TemperatureF,Min TemperatureF,Max Dew PointF,MeanDew PointF,Min DewpointF,Max Humidity, Mean Humidity, Min Humidity, Max Sea Level PressureIn, Mean Sea Level PressureIn, Min Sea Level PressureIn, Max VisibilityMiles, Mean VisibilityMiles, Min VisibilityMiles, Max Wind SpeedMPH, Mean Wind SpeedMPH, Max Gust SpeedMPH,PrecipitationIn, CloudCover, Events, WindDirDegrees
2011-10-1,87,82,78,79,77,73,89,80,74,29.98,29.93,29.89,6,6,6,13,8,,0.00,2,,134
2011-10-2,87,84,80,77,75,73,89,76,66,30.04,29.97,29.92,6,6,4,16,9,,0.00,3,Rain,106
2011-10-3,87,84,82,75,74,72,79,71,58,30.04,29.97,29.92,6,6,6,16,11,,0.00,2,Rain,90
2011-10-4,87,82,77,75,74,70,79,73,62,30.01,29.95,29.92,6,6,6,14,10,,0.00,3,Rain,104
2011-10-5,87,84,82,75,74,73,74,72,66,29.95,29.92,29.89,6,6,6,12,8,,0.00,2,,126
2011-10-6,86,84,82,75,74,72,74,71,66,29.95,29.92,29.89,6,6,6,13,8,,0.00,1,,125
2011-10-7,86,83,80,75,73,72,79,72,62,29.98,29.92,29.89,6,6,6,10,7,,0.00,2,,112
2011-10-8,86,83,80,75,73,72,79,73,66,29.98,29.94,29.92,6,6,6,13,8,,0.00,2,,105
2011-10-9,86,82,78,75,73,72,83,72,62,29.98,29.93,29.89,6,6,6,13,10,,0.00,3,Rain,97
2011-10-10,86,83,80,73,73,72,74,71,66,29.95,29.90,29.86,6,6,6,14,9,,0.00,2,,90
2011-10-11,87,84,80,77,75,72,84,76,66,29.95,29.89,29.83,6,6,6,10,8,,0.00,2,Rain,103
2011-10-12,86,82,77,77,75,72,89,78,66,29.95,29.90,29.86,6,6,6,12,7,,0.00,3,Rain,111
2011-10-13,86,82,78,75,73,72,89,72,66,29.95,29.90,29.86,6,6,6,14,8,,0.00,1,,124
2011-10-14,87,84,82,73,72,70,74,68,55,29.95,29.92,29.89,6,6,6,14,9,,0.00,2,,100
2011-10-15,87,84,80,73,73,72,79,70,58,29.95,29.90,29.86,6,6,6,14,10,,0.00,3,Rain,84
2011-10-16,86,82,77,73,73,72,89,73,66,29.98,29.91,29.86,6,6,5,15,10,,0.00,3,Rain,89
2011-10-17,86,82,78,75,74,72,84,75,66,29.95,29.88,29.83,6,6,2,14,9,,0.00,2,Rain,101
2011-10-18,87,82,78,73,73,72,83,71,62,29.95,29.90,29.86,6,6,6,13,7,,0.00,2,,92
2011-10-19,87,84,80,75,73,72,84,72,58,29.98,29.93,29.89,6,6,6,14,10,,0.00,2,Rain,82
2011-10-20,86,82,78,75,73,72,89,73,62,29.95,29.90,29.83,6,6,6,15,9,,0.00,2,Rain,72
2011-10-21,87,82,77,73,72,68,83,72,58,29.89,29.82,29.77,6,6,3,14,9,17,0.00,2,Rain-Tornado,73
2011-10-22,87,82,77,73,73,72,83,72,58,29.89,29.81,29.77,6,6,6,8,4,,0.00,2,Rain,137
2011-10-23,87,84,80,75,74,73,79,73,62,29.95,29.91,29.86,6,6,6,12,6,,0.00,2,,106
2011-10-24,87,84,82,77,74,73,84,73,62,29.95,29.90,29.86,6,6,6,17,12,,0.00,3,,81
2011-10-25,86,82,78,77,75,75,89,81,74,29.92,29.87,29.83,6,6,6,15,8,,0.00,3,Rain,104
2011-10-26,86,83,80,73,73,70,79,71,58,29.92,29.86,29.83,6,6,6,14,9,,0.00,2,,92
2011-10-27,86,82,78,75,74,73,84,75,66,29.95,29.88,29.83,6,6,2,15,11,24,0.00,3,Rain,100
2011-10-28,86,83,80,73,73,72,79,72,62,29.98,29.93,29.89,6,6,4,18,11,,0.00,2,Rain,94
2011-10-29,86,84,82,73,73,70,74,70,58,30.01,29.95,29.89,6,6,6,15,12,,0.00,3,,102
2011-10-30,86,82,78,75,73,72,83,72,62,29.98,29.94,29.89,6,6,6,15,11,29,0.00,3,Rain,91
2011-10-31,86,82,78,75,73,72,84,73,62,29.95,29.91,29.86,6,6,6,16,12,,0.00,3,,86